createdAt,value
2018-06-24T00:01:24.596Z,13.07
2018-06-24T00:04:01.645Z,13.60
2018-06-24T00:06:39.069Z,14.03
2018-06-24T00:09:18.400Z,16.17
2018-06-24T00:11:55.412Z,14.50
2018-06-24T00:14:35.438Z,14.30
2018-06-24T00:17:14.516Z,14.37
2018-06-24T00:19:52.659Z,13.50
2018-06-24T00:22:30.703Z,12.03
2018-06-24T00:25:08.386Z,10.57
2018-06-24T00:27:47.060Z,9.33
2018-06-24T00:30:23.772Z,11.23
2018-06-24T00:33:01.347Z,11.00
2018-06-24T00:35:39.664Z,12.67
2018-06-24T00:38:17.913Z,11.50
2018-06-24T00:40:57.328Z,12.73
2018-06-24T00:43:35.357Z,11.50
2018-06-24T00:46:14.950Z,13.37
2018-06-24T00:48:52.533Z,23.60
2018-06-24T00:51:32.446Z,17.33
2018-06-24T00:54:10.859Z,11.30
2018-06-24T00:56:48.545Z,9.63
2018-06-24T00:59:36.078Z,11.90
2018-06-24T01:02:13.173Z,11.37
2018-06-24T01:04:50.655Z,11.13
2018-06-24T01:07:27.865Z,12.03
2018-06-24T01:10:04.907Z,11.40
2018-06-24T01:12:42.304Z,12.27
2018-06-24T01:15:20.017Z,10.77
2018-06-24T01:17:57.935Z,12.10
2018-06-24T01:20:36.053Z,11.40
2018-06-24T01:23:13.285Z,12.07
2018-06-24T01:25:50.841Z,10.03
2018-06-24T01:28:27.934Z,9.00
2018-06-24T01:31:05.331Z,9.50
2018-06-24T01:33:42.230Z,7.60
2018-06-24T01:36:19.182Z,8.90
2018-06-24T01:38:56.241Z,7.40
2018-06-24T01:41:32.986Z,5.67
2018-06-24T01:44:09.871Z,5.20
2018-06-24T01:46:46.944Z,5.73
2018-06-24T01:49:23.555Z,3.93
2018-06-24T01:52:01.257Z,4.67
2018-06-24T01:54:38.568Z,4.07
2018-06-24T01:57:15.162Z,3.73
2018-06-24T01:59:51.902Z,3.50
2018-06-24T02:02:28.938Z,4.37
2018-06-24T02:05:06.907Z,4.30
2018-06-24T02:07:43.328Z,4.03
2018-06-24T02:10:20.411Z,3.97
2018-06-24T02:12:57.331Z,5.10
2018-06-24T02:15:34.388Z,5.17
2018-06-24T02:18:11.011Z,5.10
2018-06-24T02:20:47.845Z,4.83
2018-06-24T02:23:24.830Z,5.20
2018-06-24T02:26:01.582Z,4.47
2018-06-24T02:28:38.607Z,4.73
2018-06-24T02:31:16.295Z,3.43
2018-06-24T02:33:53.072Z,3.70
2018-06-24T02:36:30.897Z,4.90
2018-06-24T02:39:09.967Z,4.13
2018-06-24T02:41:46.874Z,4.00
2018-06-24T02:44:25.104Z,3.70
2018-06-24T02:47:02.681Z,4.70
2018-06-24T02:49:39.502Z,4.23
2018-06-24T02:52:16.255Z,4.40
2018-06-24T02:54:52.869Z,4.20
2018-06-24T02:57:30.321Z,3.67
2018-06-24T03:00:07.157Z,4.03
2018-06-24T03:02:47.762Z,4.77
2018-06-24T03:05:37.218Z,3.53
2018-06-24T03:08:13.902Z,5.07
2018-06-24T03:10:52.782Z,3.13
2018-06-24T03:13:29.580Z,3.30
2018-06-24T03:16:06.857Z,3.60
2018-06-24T03:18:43.531Z,3.33
2018-06-24T03:21:21.199Z,2.60
2018-06-24T03:23:58.573Z,3.23
2018-06-24T03:26:35.914Z,2.60
2018-06-24T03:29:13.549Z,2.90
2018-06-24T03:31:50.524Z,3.67
2018-06-24T03:34:28.233Z,4.27
2018-06-24T03:37:05.100Z,8.80
2018-06-24T03:39:41.800Z,11.10
2018-06-24T03:42:19.737Z,10.40
2018-06-24T03:44:57.041Z,10.70
2018-06-24T03:47:33.796Z,10.63
2018-06-24T03:50:10.557Z,10.40
2018-06-24T03:52:47.528Z,10.60
2018-06-24T03:55:24.493Z,10.23
2018-06-24T03:58:01.272Z,10.07
2018-06-24T04:00:38.165Z,9.83
2018-06-24T04:03:15.623Z,9.80
2018-06-24T04:05:55.016Z,8.97
2018-06-24T04:08:31.390Z,9.10
2018-06-24T04:11:09.853Z,9.03
2018-06-24T04:13:46.899Z,8.73
2018-06-24T04:16:23.912Z,9.07
2018-06-24T04:19:00.787Z,5.33
2018-06-24T04:21:37.626Z,5.27
2018-06-24T04:24:15.008Z,5.80
2018-06-24T04:26:52.205Z,5.10
2018-06-24T04:29:28.460Z,6.37
2018-06-24T04:32:05.603Z,5.97
2018-06-24T04:34:43.120Z,5.80
2018-06-24T04:37:20.273Z,8.80
2018-06-24T04:39:56.743Z,8.97
2018-06-24T04:42:33.793Z,9.20
2018-06-24T04:45:11.064Z,10.23
2018-06-24T04:47:48.317Z,10.63
2018-06-24T04:50:45.195Z,9.90
2018-06-24T04:53:22.127Z,9.40
2018-06-24T04:55:59.163Z,8.68
2018-06-24T04:58:36.032Z,9.23
2018-06-24T05:01:12.823Z,8.03
2018-06-24T05:03:49.761Z,8.20
2018-06-24T05:06:27.915Z,8.78
2018-06-24T05:09:06.565Z,9.27
2018-06-24T05:11:43.702Z,8.03
2018-06-24T05:14:20.226Z,6.53
2018-06-24T05:16:57.044Z,7.10
2018-06-24T05:19:33.716Z,5.67
2018-06-24T05:22:10.642Z,7.30
2018-06-24T05:24:47.715Z,7.73
2018-06-24T05:27:25.377Z,7.17
2018-06-24T05:30:02.484Z,6.00
2018-06-24T05:32:39.301Z,6.23
2018-06-24T05:35:16.248Z,7.80
2018-06-24T05:37:53.421Z,6.97
2018-06-24T05:40:30.285Z,6.40
2018-06-24T05:43:07.448Z,5.80
2018-06-24T05:45:44.106Z,6.30
2018-06-24T05:48:21.432Z,6.63
2018-06-24T05:50:58.332Z,6.93
2018-06-24T05:53:35.590Z,6.47
2018-06-24T05:56:12.630Z,7.43
2018-06-24T05:58:50.360Z,7.83
2018-06-24T06:01:27.343Z,6.93
2018-06-24T06:04:04.251Z,6.40
2018-06-24T06:06:42.223Z,7.70
2018-06-24T06:09:19.147Z,7.43
2018-06-24T06:11:56.192Z,7.27
2018-06-24T06:14:33.372Z,7.10
2018-06-24T06:17:10.642Z,7.63
2018-06-24T06:19:47.400Z,8.17
2018-06-24T06:22:23.598Z,7.53
2018-06-24T06:25:01.129Z,7.53
2018-06-24T06:27:37.900Z,8.30
2018-06-24T06:30:15.461Z,5.90
2018-06-24T06:32:52.651Z,7.10
2018-06-24T06:35:29.402Z,7.77
2018-06-24T06:38:06.685Z,8.00
2018-06-24T06:40:43.431Z,7.97
2018-06-24T06:43:20.568Z,7.87
2018-06-24T06:45:57.575Z,8.17
2018-06-24T06:48:34.769Z,9.60
2018-06-24T06:51:12.378Z,8.03
2018-06-24T06:53:49.445Z,8.27
2018-06-24T06:56:26.329Z,9.03
2018-06-24T06:59:03.177Z,8.23
2018-06-24T07:01:40.033Z,7.33
2018-06-24T07:04:18.035Z,7.73
2018-06-24T07:06:54.962Z,6.63
2018-06-24T07:09:31.824Z,5.40
2018-06-24T07:12:08.819Z,6.33
2018-06-24T07:14:45.559Z,5.83
2018-06-24T07:17:22.118Z,4.87
2018-06-24T07:19:58.978Z,5.10
2018-06-24T07:22:36.134Z,4.90
2018-06-24T07:25:13.966Z,3.60
2018-06-24T07:28:09.140Z,4.70
2018-06-24T07:30:46.524Z,3.93
2018-06-24T07:33:23.094Z,4.30
2018-06-24T07:36:00.357Z,3.80
2018-06-24T07:38:37.386Z,4.17
2018-06-24T07:41:14.349Z,3.70
2018-06-24T07:43:51.303Z,4.17
2018-06-24T07:46:28.003Z,3.20
2018-06-24T07:49:05.138Z,3.27
2018-06-24T07:51:42.388Z,2.27
2018-06-24T07:54:19.102Z,2.23
2018-06-24T07:56:55.669Z,2.83
2018-06-24T07:59:33.609Z,3.07
2018-06-24T08:02:10.819Z,1.93
2018-06-24T08:04:47.899Z,1.30
2018-06-24T08:07:24.765Z,1.93
2018-06-24T08:10:01.875Z,2.07
2018-06-24T08:12:39.390Z,2.43
2018-06-24T08:15:16.171Z,3.10
2018-06-24T08:17:53.762Z,2.30
2018-06-24T08:20:31.240Z,2.70
2018-06-24T08:23:08.089Z,2.40
2018-06-24T08:25:45.072Z,1.70
2018-06-24T08:28:22.330Z,1.87
2018-06-24T08:30:59.876Z,2.90
2018-06-24T08:33:36.650Z,2.10
2018-06-24T08:36:13.246Z,2.30
2018-06-24T08:38:50.400Z,2.03
2018-06-24T08:41:28.069Z,2.07
2018-06-24T08:44:04.954Z,2.10
2018-06-24T08:46:41.691Z,2.10
2018-06-24T08:49:18.958Z,1.80
2018-06-24T08:51:56.129Z,2.17
2018-06-24T08:54:33.317Z,2.13
2018-06-24T08:57:10.795Z,2.20
2018-06-24T08:59:47.699Z,1.90
2018-06-24T09:02:24.923Z,2.00
2018-06-24T09:05:02.052Z,1.83
2018-06-24T09:07:38.877Z,2.20
2018-06-24T09:10:16.389Z,1.50
2018-06-24T09:12:53.511Z,1.83
2018-06-24T09:15:30.831Z,1.93
2018-06-24T09:18:08.082Z,1.97
2018-06-24T09:20:44.235Z,1.77
2018-06-24T09:23:20.798Z,1.93
2018-06-24T09:25:57.458Z,1.40
2018-06-24T09:28:34.500Z,1.80
2018-06-24T09:31:11.638Z,1.30
2018-06-24T09:33:48.229Z,1.67
2018-06-24T09:36:25.195Z,1.53
2018-06-24T09:39:02.064Z,1.90
2018-06-24T09:41:38.967Z,1.77
2018-06-24T09:44:15.570Z,2.60
2018-06-24T09:46:52.573Z,2.47
2018-06-24T09:49:29.583Z,2.00
2018-06-24T09:52:06.579Z,2.37
2018-06-24T09:54:43.163Z,2.00
2018-06-24T09:57:19.976Z,2.37
2018-06-24T09:59:57.284Z,1.50
2018-06-24T10:02:34.722Z,2.30
2018-06-24T10:05:11.619Z,1.97
2018-06-24T10:07:48.204Z,1.70
2018-06-24T10:10:24.828Z,1.90
2018-06-24T10:13:01.713Z,2.20
2018-06-24T10:15:39.632Z,1.90
2018-06-24T10:18:16.691Z,1.70
2018-06-24T10:20:53.487Z,1.50
2018-06-24T10:23:30.683Z,1.50
2018-06-24T10:26:07.622Z,1.40
2018-06-24T10:28:45.404Z,1.47
2018-06-24T10:31:22.988Z,1.73
2018-06-24T10:34:00.592Z,2.00
2018-06-24T10:36:37.576Z,1.70
2018-06-24T10:39:15.035Z,1.53
2018-06-24T10:41:51.828Z,1.50
2018-06-24T10:44:29.939Z,1.57
2018-06-24T10:47:07.525Z,1.33
2018-06-24T10:49:44.429Z,1.13
2018-06-24T10:52:21.006Z,1.90
2018-06-24T10:54:58.459Z,3.40
2018-06-24T10:57:34.852Z,1.67
2018-06-24T11:00:12.579Z,1.93
2018-06-24T11:02:50.783Z,2.30
2018-06-24T11:05:28.368Z,2.07
2018-06-24T11:08:06.027Z,1.60
2018-06-24T11:10:48.045Z,1.93
2018-06-24T11:13:31.271Z,2.23
2018-06-24T11:16:08.287Z,1.63
2018-06-24T11:18:45.088Z,1.80
2018-06-24T11:21:21.991Z,1.90
2018-06-24T11:23:58.924Z,1.90
2018-06-24T11:26:35.680Z,2.53
2018-06-24T11:29:12.433Z,2.03
2018-06-24T11:31:49.345Z,1.93
2018-06-24T11:34:27.499Z,1.80
2018-06-24T11:37:04.649Z,1.50
2018-06-24T11:39:41.933Z,2.10
2018-06-24T11:42:18.848Z,1.80
2018-06-24T11:44:56.155Z,2.20
2018-06-24T11:47:33.369Z,2.13
2018-06-24T11:50:09.909Z,2.13
2018-06-24T11:52:47.068Z,1.93
2018-06-24T11:55:24.621Z,2.07
2018-06-24T11:58:01.921Z,2.27
2018-06-24T12:00:39.709Z,2.77
2018-06-24T12:03:17.187Z,1.93
2018-06-24T12:05:54.739Z,1.10
2018-06-24T12:08:32.162Z,1.20
2018-06-24T12:11:08.876Z,1.30
2018-06-24T12:13:45.941Z,1.33
2018-06-24T12:16:22.740Z,1.80
2018-06-24T12:18:59.728Z,1.73
2018-06-24T12:21:36.743Z,1.57
2018-06-24T12:24:14.306Z,2.07
2018-06-24T12:26:51.144Z,1.50
2018-06-24T12:29:28.713Z,1.50
2018-06-24T12:32:06.340Z,2.30
2018-06-24T12:34:43.359Z,1.50
2018-06-24T12:37:20.802Z,1.73
2018-06-24T12:39:57.635Z,2.00
2018-06-24T12:42:34.312Z,1.80
2018-06-24T12:45:11.018Z,1.30
2018-06-24T12:47:48.168Z,1.27
2018-06-24T12:50:25.051Z,1.40
2018-06-24T12:53:02.401Z,1.90
2018-06-24T12:55:39.405Z,1.23
2018-06-24T12:58:17.065Z,1.67
2018-06-24T13:03:59.138Z,2.00
2018-06-24T13:06:35.850Z,1.60
2018-06-24T13:09:13.122Z,1.20
2018-06-24T13:11:53.833Z,1.73
2018-06-24T13:14:30.522Z,1.60
2018-06-24T13:17:07.719Z,1.33
2018-06-24T13:19:44.727Z,2.43
2018-06-24T13:22:21.558Z,1.90
2018-06-24T13:24:58.101Z,1.40
2018-06-24T13:27:35.186Z,1.50
2018-06-24T13:30:12.276Z,1.50
2018-06-24T13:32:49.139Z,2.03
2018-06-24T13:35:26.159Z,1.57
2018-06-24T13:38:03.103Z,1.37
2018-06-24T13:40:39.819Z,1.47
2018-06-24T13:43:16.682Z,1.97
2018-06-24T13:45:53.354Z,1.80
2018-06-24T13:48:30.320Z,1.53
2018-06-24T13:51:07.373Z,1.67
2018-06-24T13:53:44.023Z,1.27
2018-06-24T13:56:20.905Z,1.50
2018-06-24T13:58:57.947Z,1.90
2018-06-24T14:01:34.826Z,2.20
2018-06-24T14:04:11.794Z,1.77
2018-06-24T14:06:49.451Z,2.00
2018-06-24T14:09:26.647Z,2.43
2018-06-24T14:12:04.100Z,1.93
2018-06-24T14:14:41.000Z,1.90
2018-06-24T14:17:18.559Z,2.27
2018-06-24T14:19:56.369Z,2.23
2018-06-24T14:22:33.700Z,2.00
2018-06-24T14:25:10.545Z,2.47
2018-06-24T14:27:47.451Z,1.70
2018-06-24T14:30:25.039Z,2.50
2018-06-24T14:33:02.278Z,2.00
2018-06-24T14:35:40.276Z,2.20
2018-06-24T14:38:17.571Z,2.57
2018-06-24T14:40:54.536Z,1.83
2018-06-24T14:43:32.321Z,1.93
2018-06-24T14:46:09.330Z,2.17
2018-06-24T14:48:46.100Z,1.77
2018-06-24T14:51:23.059Z,2.03
2018-06-24T14:54:00.203Z,1.50
2018-06-24T14:56:37.132Z,2.07
2018-06-24T14:59:14.356Z,1.70
2018-06-24T15:01:51.033Z,1.57
2018-06-24T15:04:28.072Z,1.83
2018-06-24T15:07:04.911Z,2.33
2018-06-24T15:09:41.741Z,1.87
2018-06-24T15:12:19.382Z,1.47
2018-06-24T15:14:56.636Z,1.90
2018-06-24T15:17:33.131Z,2.00
2018-06-24T15:20:09.997Z,1.80
2018-06-24T15:22:46.659Z,1.70
2018-06-24T15:25:23.832Z,1.83
2018-06-24T15:28:01.314Z,1.20
2018-06-24T15:30:38.015Z,1.60
2018-06-24T15:33:15.072Z,2.07
2018-06-24T15:35:51.882Z,2.03
2018-06-24T15:38:28.878Z,2.17
2018-06-24T15:41:06.892Z,2.27
2018-06-24T15:43:43.734Z,1.90
2018-06-24T15:46:20.601Z,2.23
2018-06-24T15:48:57.516Z,2.00
2018-06-24T15:51:34.602Z,2.20
2018-06-24T15:54:10.990Z,1.80
2018-06-24T15:56:48.247Z,1.93
2018-06-24T15:59:28.333Z,1.63
2018-06-24T16:02:05.647Z,2.40
2018-06-24T16:04:43.227Z,1.60
2018-06-24T16:07:20.336Z,1.73
2018-06-24T16:09:57.220Z,2.40
2018-06-24T16:12:34.127Z,1.60
2018-06-24T16:15:10.955Z,2.20
2018-06-24T16:17:48.125Z,1.57
2018-06-24T16:20:25.008Z,2.00
2018-06-24T16:23:02.409Z,2.07
2018-06-24T16:25:39.357Z,2.30
2018-06-24T16:28:16.878Z,2.10
2018-06-24T16:30:54.099Z,1.83
2018-06-24T16:33:31.048Z,1.97
2018-06-24T16:36:08.179Z,2.30
2018-06-24T16:38:44.678Z,1.90
2018-06-24T16:41:21.182Z,2.23
2018-06-24T16:43:58.247Z,2.40
2018-06-24T16:46:36.293Z,1.60
2018-06-24T16:49:12.550Z,2.13
2018-06-24T16:51:49.552Z,2.80
2018-06-24T16:54:33.374Z,1.77
2018-06-24T16:57:10.240Z,1.90
2018-06-24T16:59:47.351Z,1.50
2018-06-24T17:02:23.991Z,1.70
2018-06-24T17:05:00.726Z,2.03
2018-06-24T17:07:37.758Z,1.87
2018-06-24T17:10:16.138Z,2.37
2018-06-24T17:12:53.587Z,2.77
2018-06-24T17:15:39.734Z,2.17
2018-06-24T17:18:16.498Z,1.60
2018-06-24T17:20:53.272Z,1.80
2018-06-24T17:23:29.895Z,2.03
2018-06-24T17:26:06.906Z,1.70
2018-06-24T17:28:44.047Z,1.73
2018-06-24T17:31:20.983Z,2.43
2018-06-24T17:33:57.590Z,2.40
2018-06-24T17:36:34.500Z,1.87
2018-06-24T17:39:12.952Z,1.97
2018-06-24T17:41:51.522Z,2.03
2018-06-24T17:44:28.829Z,1.80
2018-06-24T17:47:06.056Z,1.70
2018-06-24T17:49:42.556Z,1.90
2018-06-24T17:52:19.675Z,2.60
2018-06-24T17:54:56.856Z,1.90
2018-06-24T17:57:34.200Z,1.90
2018-06-24T18:00:11.709Z,2.03
2018-06-24T18:02:48.701Z,2.03
2018-06-24T18:05:25.253Z,1.73
2018-06-24T18:08:02.129Z,2.07
2018-06-24T18:10:39.048Z,2.37
2018-06-24T18:13:15.890Z,2.70
2018-06-24T18:15:52.998Z,1.73
2018-06-24T18:18:29.626Z,2.07
2018-06-24T18:21:07.240Z,1.93
2018-06-24T18:23:44.750Z,1.87
2018-06-24T18:26:21.803Z,2.20
2018-06-24T18:28:58.600Z,1.60
2018-06-24T18:31:36.427Z,2.20
2018-06-24T18:34:13.490Z,2.57
2018-06-24T18:36:50.183Z,2.07
2018-06-24T18:39:27.312Z,2.37
2018-06-24T18:42:03.670Z,1.97
2018-06-24T18:44:41.317Z,2.30
2018-06-24T18:47:18.559Z,2.10
2018-06-24T18:49:55.555Z,2.40
2018-06-24T18:52:32.496Z,2.23
2018-06-24T18:55:09.432Z,2.43
2018-06-24T18:57:47.603Z,2.22
2018-06-24T19:00:25.686Z,2.13
2018-06-24T19:03:03.233Z,2.80
2018-06-24T19:05:39.914Z,2.60
2018-06-24T19:08:16.736Z,2.70
2018-06-24T19:10:53.560Z,2.33
2018-06-24T19:13:30.507Z,2.40
2018-06-24T19:16:07.601Z,2.23
2018-06-24T19:18:44.322Z,2.70
2018-06-24T19:21:32.906Z,2.90
2018-06-24T19:24:09.844Z,2.83
2018-06-24T19:26:46.817Z,2.60
2018-06-24T19:29:23.841Z,2.07
2018-06-24T19:32:00.874Z,2.10
2018-06-24T19:34:38.632Z,2.47
2018-06-24T19:37:15.674Z,2.30
2018-06-24T19:39:52.410Z,2.20
2018-06-24T19:42:29.388Z,2.93
2018-06-24T19:45:06.470Z,3.20
2018-06-24T19:47:43.494Z,2.83
2018-06-24T19:50:20.268Z,2.70
2018-06-24T19:52:57.216Z,3.57
2018-06-24T19:55:34.229Z,2.60
2018-06-24T19:58:11.069Z,2.70
2018-06-24T20:00:48.153Z,2.33
2018-06-24T20:03:27.698Z,2.27
2018-06-24T20:06:07.395Z,2.77
2018-06-24T20:08:45.599Z,3.23
2018-06-24T20:11:22.682Z,2.60
2018-06-24T20:14:00.079Z,4.30
2018-06-24T20:16:36.971Z,2.60
2018-06-24T20:19:14.054Z,2.80
2018-06-24T20:21:51.439Z,2.83
2018-06-24T20:24:28.510Z,3.33
2018-06-24T20:27:05.658Z,2.80
2018-06-24T20:29:42.494Z,2.47
2018-06-24T20:32:19.969Z,3.30
2018-06-24T20:34:56.996Z,2.13
2018-06-24T20:37:33.866Z,3.00
2018-06-24T20:40:11.143Z,2.50
2018-06-24T20:42:48.271Z,3.73
2018-06-24T20:45:26.001Z,2.90
2018-06-24T20:48:04.618Z,2.70
2018-06-24T20:50:41.656Z,3.20
2018-06-24T20:53:17.401Z,2.57
2018-06-24T20:55:54.437Z,2.30
2018-06-24T20:58:31.366Z,2.30
2018-06-24T21:01:08.184Z,2.90
2018-06-24T21:03:46.237Z,3.30
2018-06-24T21:06:23.047Z,2.90
2018-06-24T21:08:59.963Z,3.03
2018-06-24T21:11:37.980Z,2.90
2018-06-24T21:14:15.016Z,2.60
2018-06-24T21:16:52.451Z,2.90
2018-06-24T21:19:29.622Z,2.10
2018-06-24T21:22:06.348Z,3.10
2018-06-24T21:24:44.249Z,2.77
2018-06-24T21:27:21.391Z,3.00
2018-06-24T21:29:58.203Z,3.20
2018-06-24T21:32:35.141Z,2.57
2018-06-24T21:35:11.976Z,2.57
2018-06-24T21:37:48.682Z,3.57
2018-06-24T21:40:25.507Z,3.20
2018-06-24T21:43:02.525Z,2.20
2018-06-24T21:45:39.494Z,2.93
2018-06-24T21:48:16.400Z,3.53
2018-06-24T21:50:53.386Z,2.43
2018-06-24T21:53:30.105Z,3.03
2018-06-24T21:56:06.863Z,2.80
2018-06-24T21:58:43.757Z,2.80
2018-06-24T22:01:20.426Z,1.93
2018-06-24T22:03:57.543Z,3.07
2018-06-24T22:06:33.887Z,3.20
2018-06-24T22:09:12.157Z,2.57
2018-06-24T22:11:49.788Z,3.03
2018-06-24T22:14:27.377Z,2.67
2018-06-24T22:17:04.370Z,3.40
2018-06-24T22:19:44.426Z,6.30
2018-06-24T22:22:21.044Z,4.60
2018-06-24T22:25:03.316Z,5.30
2018-06-24T22:27:40.630Z,5.50
2018-06-24T22:30:17.772Z,6.40
2018-06-24T22:32:54.785Z,8.00
2018-06-24T22:35:31.843Z,6.17
2018-06-24T22:38:08.614Z,5.10
2018-06-24T22:40:46.922Z,4.70
2018-06-24T22:43:23.739Z,3.77
2018-06-24T22:46:00.483Z,4.00
2018-06-24T22:48:37.324Z,3.47
2018-06-24T22:51:14.297Z,3.93
2018-06-24T22:53:50.970Z,6.10
2018-06-24T22:56:27.944Z,6.07
2018-06-24T22:59:15.626Z,6.20
2018-06-24T23:01:53.376Z,6.60
2018-06-24T23:04:29.920Z,6.27
2018-06-24T23:07:07.234Z,7.03
2018-06-24T23:09:43.845Z,3.47
2018-06-24T23:12:20.622Z,3.10
2018-06-24T23:14:57.284Z,3.50
2018-06-24T23:17:34.290Z,2.80
2018-06-24T23:20:10.988Z,2.83
2018-06-24T23:22:47.739Z,2.60
2018-06-24T23:25:24.492Z,2.67
2018-06-24T23:28:01.683Z,2.57
2018-06-24T23:30:38.501Z,3.87
2018-06-24T23:33:15.562Z,3.40
2018-06-24T23:35:52.584Z,2.80
2018-06-24T23:38:29.523Z,3.43
2018-06-24T23:41:06.605Z,3.00
2018-06-24T23:43:43.532Z,2.63
2018-06-24T23:46:20.184Z,3.83
2018-06-24T23:48:57.308Z,4.40
2018-06-24T23:51:33.881Z,3.90
2018-06-24T23:54:10.706Z,3.53
2018-06-24T23:56:49.001Z,4.97
2018-06-24T23:59:25.911Z,4.70
